sensor_id;sensor_type;location;lat;lon;timestamp;temperature;humidity
26687;DHT22;14298;50.900;4.648;2023-03-12T00:01:18;4.30;97.10
26687;DHT22;14298;50.900;4.648;2023-03-12T00:03:47;4.30;97.10
26687;DHT22;14298;50.900;4.648;2023-03-12T00:06:16;4.40;97.10
26687;DHT22;14298;50.900;4.648;2023-03-12T00:08:46;4.40;97.10
26687;DHT22;14298;50.900;4.648;2023-03-12T00:11:16;4.40;97.10
26687;DHT22;14298;50.900;4.648;2023-03-12T00:13:53;4.50;97.10
26687;DHT22;14298;50.900;4.648;2023-03-12T00:16:23;4.50;97.10
26687;DHT22;14298;50.900;4.648;2023-03-12T00:18:54;4.50;97.10
26687;DHT22;14298;50.900;4.648;2023-03-12T00:21:22;4.50;97.10
26687;DHT22;14298;50.900;4.648;2023-03-12T00:23:52;4.50;97.10
26687;DHT22;14298;50.900;4.648;2023-03-12T00:26:21;4.40;97.10
26687;DHT22;14298;50.900;4.648;2023-03-12T00:28:50;4.50;97.10
26687;DHT22;14298;50.900;4.648;2023-03-12T00:31:24;4.50;97.10
26687;DHT22;14298;50.900;4.648;2023-03-12T00:33:55;4.40;97.10
26687;DHT22;14298;50.900;4.648;2023-03-12T00:36:25;4.40;97.10
26687;DHT22;14298;50.900;4.648;2023-03-12T00:38:55;4.50;97.10
26687;DHT22;14298;50.900;4.648;2023-03-12T00:41:24;4.50;97.10
26687;DHT22;14298;50.900;4.648;2023-03-12T00:43:53;4.50;97.10
26687;DHT22;14298;50.900;4.648;2023-03-12T00:46:21;4.40;97.10
26687;DHT22;14298;50.900;4.648;2023-03-12T00:48:50;4.40;97.10
26687;DHT22;14298;50.900;4.648;2023-03-12T00:51:19;4.50;97.10
26687;DHT22;14298;50.900;4.648;2023-03-12T00:53:47;4.40;97.10
26687;DHT22;14298;50.900;4.648;2023-03-12T00:56:16;4.40;97.10
26687;DHT22;14298;50.900;4.648;2023-03-12T00:58:44;4.40;97.10
26687;DHT22;14298;50.900;4.648;2023-03-12T01:01:13;4.50;97.10
26687;DHT22;14298;50.900;4.648;2023-03-12T01:03:41;4.50;97.10
26687;DHT22;14298;50.900;4.648;2023-03-12T01:06:09;4.50;97.10
26687;DHT22;14298;50.900;4.648;2023-03-12T01:08:38;4.50;97.10
26687;DHT22;14298;50.900;4.648;2023-03-12T01:11:06;4.50;97.10
26687;DHT22;14298;50.900;4.648;2023-03-12T01:13:35;4.50;97.10
26687;DHT22;14298;50.900;4.648;2023-03-12T01:16:04;4.50;97.10
26687;DHT22;14298;50.900;4.648;2023-03-12T01:18:32;4.50;97.10
26687;DHT22;14298;50.900;4.648;2023-03-12T01:21:01;4.50;97.10
26687;DHT22;14298;50.900;4.648;2023-03-12T01:23:29;4.50;97.10
26687;DHT22;14298;50.900;4.648;2023-03-12T01:25:58;4.50;97.10
26687;DHT22;14298;50.900;4.648;2023-03-12T01:28:26;4.50;97.10
26687;DHT22;14298;50.900;4.648;2023-03-12T01:30:55;4.60;97.10
26687;DHT22;14298;50.900;4.648;2023-03-12T01:33:23;4.60;97.10
26687;DHT22;14298;50.900;4.648;2023-03-12T01:35:51;4.50;97.10
26687;DHT22;14298;50.900;4.648;2023-03-12T01:38:20;4.60;97.10
26687;DHT22;14298;50.900;4.648;2023-03-12T01:40:48;4.60;97.10
26687;DHT22;14298;50.900;4.648;2023-03-12T01:43:25;4.50;97.10
26687;DHT22;14298;50.900;4.648;2023-03-12T01:46:23;4.50;97.10
26687;DHT22;14298;50.900;4.648;2023-03-12T01:49:15;4.40;97.10
26687;DHT22;14298;50.900;4.648;2023-03-12T01:51:49;4.40;97.10
26687;DHT22;14298;50.900;4.648;2023-03-12T01:54:26;4.30;97.10
26687;DHT22;14298;50.900;4.648;2023-03-12T01:56:50;4.30;97.10
26687;DHT22;14298;50.900;4.648;2023-03-12T01:59:22;4.30;97.10
26687;DHT22;14298;50.900;4.648;2023-03-12T02:02:09;4.30;97.10
26687;DHT22;14298;50.900;4.648;2023-03-12T02:04:39;4.30;97.10
26687;DHT22;14298;50.900;4.648;2023-03-12T02:07:11;4.30;97.10
26687;DHT22;14298;50.900;4.648;2023-03-12T02:09:46;4.30;97.10
26687;DHT22;14298;50.900;4.648;2023-03-12T02:12:16;4.30;97.10
26687;DHT22;14298;50.900;4.648;2023-03-12T02:14:45;4.30;97.10
26687;DHT22;14298;50.900;4.648;2023-03-12T02:17:13;4.30;97.10
26687;DHT22;14298;50.900;4.648;2023-03-12T02:23:05;4.30;97.10
26687;DHT22;14298;50.900;4.648;2023-03-12T02:25:40;4.20;97.10
26687;DHT22;14298;50.900;4.648;2023-03-12T02:28:14;4.20;97.10
26687;DHT22;14298;50.900;4.648;2023-03-12T02:30:45;4.20;97.10
26687;DHT22;14298;50.900;4.648;2023-03-12T02:33:14;4.10;97.10
26687;DHT22;14298;50.900;4.648;2023-03-12T02:35:46;4.10;97.10
26687;DHT22;14298;50.900;4.648;2023-03-12T02:38:34;4.10;97.10
26687;DHT22;14298;50.900;4.648;2023-03-12T02:41:09;4.10;97.10
26687;DHT22;14298;50.900;4.648;2023-03-12T02:43:34;4.00;97.10
26687;DHT22;14298;50.900;4.648;2023-03-12T02:46:03;4.00;97.10
26687;DHT22;14298;50.900;4.648;2023-03-12T02:48:31;4.10;97.10
26687;DHT22;14298;50.900;4.648;2023-03-12T02:50:59;4.10;97.10
26687;DHT22;14298;50.900;4.648;2023-03-12T02:53:29;4.10;97.10
26687;DHT22;14298;50.900;4.648;2023-03-12T02:55:58;4.10;97.10
26687;DHT22;14298;50.900;4.648;2023-03-12T02:58:26;4.10;97.10
26687;DHT22;14298;50.900;4.648;2023-03-12T03:00:55;4.10;97.10
26687;DHT22;14298;50.900;4.648;2023-03-12T03:03:23;4.10;97.10
26687;DHT22;14298;50.900;4.648;2023-03-12T03:05:51;4.00;97.10
26687;DHT22;14298;50.900;4.648;2023-03-12T03:08:20;4.00;97.10
26687;DHT22;14298;50.900;4.648;2023-03-12T03:10:50;4.00;97.10
26687;DHT22;14298;50.900;4.648;2023-03-12T03:13:19;4.10;97.10
26687;DHT22;14298;50.900;4.648;2023-03-12T03:15:47;4.10;97.10
26687;DHT22;14298;50.900;4.648;2023-03-12T03:18:15;4.10;97.10
26687;DHT22;14298;50.900;4.648;2023-03-12T03:20:44;4.10;97.10
26687;DHT22;14298;50.900;4.648;2023-03-12T03:23:12;4.10;97.10
26687;DHT22;14298;50.900;4.648;2023-03-12T03:25:40;4.10;97.10
26687;DHT22;14298;50.900;4.648;2023-03-12T03:28:08;4.10;97.10
26687;DHT22;14298;50.900;4.648;2023-03-12T03:30:37;4.20;97.10
26687;DHT22;14298;50.900;4.648;2023-03-12T03:33:05;4.20;97.10
26687;DHT22;14298;50.900;4.648;2023-03-12T03:35:34;4.20;97.10
26687;DHT22;14298;50.900;4.648;2023-03-12T03:38:02;4.20;97.10
26687;DHT22;14298;50.900;4.648;2023-03-12T03:40:31;4.20;97.10
26687;DHT22;14298;50.900;4.648;2023-03-12T03:42:59;4.20;97.10
26687;DHT22;14298;50.900;4.648;2023-03-12T03:45:27;4.20;97.10
26687;DHT22;14298;50.900;4.648;2023-03-12T03:48:15;4.20;97.10
26687;DHT22;14298;50.900;4.648;2023-03-12T03:50:43;4.20;97.10
26687;DHT22;14298;50.900;4.648;2023-03-12T03:53:12;4.20;97.10
26687;DHT22;14298;50.900;4.648;2023-03-12T03:55:41;4.30;97.10
26687;DHT22;14298;50.900;4.648;2023-03-12T03:58:09;4.30;97.10
26687;DHT22;14298;50.900;4.648;2023-03-12T04:00:37;4.30;97.10
26687;DHT22;14298;50.900;4.648;2023-03-12T04:03:06;4.30;97.10
26687;DHT22;14298;50.900;4.648;2023-03-12T04:05:34;4.30;97.10
26687;DHT22;14298;50.900;4.648;2023-03-12T04:08:02;4.30;97.10
26687;DHT22;14298;50.900;4.648;2023-03-12T04:10:31;4.30;97.10
26687;DHT22;14298;50.900;4.648;2023-03-12T04:12:59;4.30;97.10
26687;DHT22;14298;50.900;4.648;2023-03-12T04:15:27;4.40;97.10
26687;DHT22;14298;50.900;4.648;2023-03-12T04:17:56;4.30;97.10
26687;DHT22;14298;50.900;4.648;2023-03-12T04:20:24;4.40;97.10
26687;DHT22;14298;50.900;4.648;2023-03-12T04:22:52;4.40;97.10
26687;DHT22;14298;50.900;4.648;2023-03-12T04:25:21;4.40;97.10
26687;DHT22;14298;50.900;4.648;2023-03-12T04:27:49;4.40;97.10
26687;DHT22;14298;50.900;4.648;2023-03-12T04:30:18;4.40;97.10
26687;DHT22;14298;50.900;4.648;2023-03-12T04:32:46;4.40;97.10
26687;DHT22;14298;50.900;4.648;2023-03-12T04:35:14;4.50;97.10
26687;DHT22;14298;50.900;4.648;2023-03-12T04:37:43;4.50;97.10
26687;DHT22;14298;50.900;4.648;2023-03-12T04:40:12;4.50;97.10
26687;DHT22;14298;50.900;4.648;2023-03-12T04:42:41;4.60;97.10
26687;DHT22;14298;50.900;4.648;2023-03-12T04:45:10;4.50;97.10
26687;DHT22;14298;50.900;4.648;2023-03-12T04:47:39;4.60;97.10
26687;DHT22;14298;50.900;4.648;2023-03-12T04:50:12;4.50;97.10
26687;DHT22;14298;50.900;4.648;2023-03-12T04:52:40;4.50;97.10
26687;DHT22;14298;50.900;4.648;2023-03-12T04:55:09;4.60;97.10
26687;DHT22;14298;50.900;4.648;2023-03-12T04:57:37;4.60;97.10
26687;DHT22;14298;50.900;4.648;2023-03-12T05:00:06;4.60;97.10
26687;DHT22;14298;50.900;4.648;2023-03-12T05:02:36;4.60;97.10
26687;DHT22;14298;50.900;4.648;2023-03-12T05:05:06;4.60;97.10
26687;DHT22;14298;50.900;4.648;2023-03-12T05:07:34;4.50;97.10
26687;DHT22;14298;50.900;4.648;2023-03-12T05:10:03;4.60;97.10
26687;DHT22;14298;50.900;4.648;2023-03-12T05:12:32;4.50;97.10
26687;DHT22;14298;50.900;4.648;2023-03-12T05:15:00;4.50;97.10
26687;DHT22;14298;50.900;4.648;2023-03-12T05:17:28;4.50;97.10
26687;DHT22;14298;50.900;4.648;2023-03-12T05:19:57;4.50;97.10
26687;DHT22;14298;50.900;4.648;2023-03-12T05:22:25;4.50;97.10
26687;DHT22;14298;50.900;4.648;2023-03-12T05:24:53;4.60;97.10
26687;DHT22;14298;50.900;4.648;2023-03-12T05:27:21;4.60;97.10
26687;DHT22;14298;50.900;4.648;2023-03-12T05:29:52;4.60;97.10
26687;DHT22;14298;50.900;4.648;2023-03-12T05:32:21;4.60;97.10
26687;DHT22;14298;50.900;4.648;2023-03-12T05:34:49;4.60;97.10
26687;DHT22;14298;50.900;4.648;2023-03-12T05:37:18;4.60;97.10
26687;DHT22;14298;50.900;4.648;2023-03-12T05:39:46;4.70;97.10
26687;DHT22;14298;50.900;4.648;2023-03-12T05:42:15;4.70;97.10
26687;DHT22;14298;50.900;4.648;2023-03-12T05:44:43;4.70;97.10
26687;DHT22;14298;50.900;4.648;2023-03-12T05:47:11;4.80;97.10
26687;DHT22;14298;50.900;4.648;2023-03-12T05:49:40;4.90;97.10
26687;DHT22;14298;50.900;4.648;2023-03-12T05:52:09;4.90;97.10
26687;DHT22;14298;50.900;4.648;2023-03-12T05:54:37;4.90;97.10
26687;DHT22;14298;50.900;4.648;2023-03-12T05:57:06;4.90;97.10
26687;DHT22;14298;50.900;4.648;2023-03-12T05:59:34;5.00;97.10
26687;DHT22;14298;50.900;4.648;2023-03-12T06:02:02;5.00;97.10
26687;DHT22;14298;50.900;4.648;2023-03-12T06:04:31;5.10;97.10
26687;DHT22;14298;50.900;4.648;2023-03-12T06:06:59;5.10;97.10
26687;DHT22;14298;50.900;4.648;2023-03-12T06:09:27;5.10;97.10
26687;DHT22;14298;50.900;4.648;2023-03-12T06:11:56;5.20;97.10
26687;DHT22;14298;50.900;4.648;2023-03-12T06:14:24;5.20;97.10
26687;DHT22;14298;50.900;4.648;2023-03-12T06:16:52;5.20;97.10
26687;DHT22;14298;50.900;4.648;2023-03-12T06:19:21;5.30;97.10
26687;DHT22;14298;50.900;4.648;2023-03-12T06:21:49;5.30;97.10
26687;DHT22;14298;50.900;4.648;2023-03-12T06:24:18;5.40;97.10
26687;DHT22;14298;50.900;4.648;2023-03-12T06:26:46;5.40;97.10
26687;DHT22;14298;50.900;4.648;2023-03-12T06:29:15;5.50;97.10
26687;DHT22;14298;50.900;4.648;2023-03-12T06:31:43;5.50;97.10
26687;DHT22;14298;50.900;4.648;2023-03-12T06:34:11;5.50;97.10
26687;DHT22;14298;50.900;4.648;2023-03-12T06:36:40;5.50;97.10
26687;DHT22;14298;50.900;4.648;2023-03-12T06:39:08;5.60;97.10
26687;DHT22;14298;50.900;4.648;2023-03-12T06:41:36;5.60;97.10
26687;DHT22;14298;50.900;4.648;2023-03-12T06:44:05;5.70;97.10
26687;DHT22;14298;50.900;4.648;2023-03-12T06:46:52;5.70;97.10
26687;DHT22;14298;50.900;4.648;2023-03-12T06:49:21;5.70;97.10
26687;DHT22;14298;50.900;4.648;2023-03-12T06:51:49;5.80;97.10
26687;DHT22;14298;50.900;4.648;2023-03-12T06:54:18;5.80;97.10
26687;DHT22;14298;50.900;4.648;2023-03-12T06:56:46;5.90;97.10
26687;DHT22;14298;50.900;4.648;2023-03-12T06:59:14;5.90;97.10
26687;DHT22;14298;50.900;4.648;2023-03-12T07:01:44;5.90;97.10
26687;DHT22;14298;50.900;4.648;2023-03-12T07:04:13;6.00;97.10
26687;DHT22;14298;50.900;4.648;2023-03-12T07:06:41;6.10;97.10
26687;DHT22;14298;50.900;4.648;2023-03-12T07:09:10;6.20;97.10
26687;DHT22;14298;50.900;4.648;2023-03-12T07:11:38;6.30;97.10
26687;DHT22;14298;50.900;4.648;2023-03-12T07:14:06;6.40;97.10
26687;DHT22;14298;50.900;4.648;2023-03-12T07:16:35;6.50;97.10
26687;DHT22;14298;50.900;4.648;2023-03-12T07:19:22;6.60;97.10
26687;DHT22;14298;50.900;4.648;2023-03-12T07:21:51;6.70;97.10
26687;DHT22;14298;50.900;4.648;2023-03-12T07:24:19;6.80;97.10
26687;DHT22;14298;50.900;4.648;2023-03-12T07:26:47;6.90;97.10
26687;DHT22;14298;50.900;4.648;2023-03-12T07:29:16;7.00;97.10
26687;DHT22;14298;50.900;4.648;2023-03-12T07:31:44;7.10;97.10
26687;DHT22;14298;50.900;4.648;2023-03-12T07:34:12;7.20;97.10
26687;DHT22;14298;50.900;4.648;2023-03-12T07:36:41;7.30;97.10
26687;DHT22;14298;50.900;4.648;2023-03-12T07:39:09;7.50;97.10
26687;DHT22;14298;50.900;4.648;2023-03-12T07:41:37;7.70;97.10
26687;DHT22;14298;50.900;4.648;2023-03-12T07:44:06;7.70;97.10
26687;DHT22;14298;50.900;4.648;2023-03-12T07:46:35;7.80;97.10
26687;DHT22;14298;50.900;4.648;2023-03-12T07:49:04;7.80;97.10
26687;DHT22;14298;50.900;4.648;2023-03-12T07:51:32;7.90;97.10
26687;DHT22;14298;50.900;4.648;2023-03-12T07:54:00;8.00;97.10
26687;DHT22;14298;50.900;4.648;2023-03-12T07:56:29;8.10;97.10
26687;DHT22;14298;50.900;4.648;2023-03-12T07:58:57;8.20;97.10
26687;DHT22;14298;50.900;4.648;2023-03-12T08:01:25;8.20;97.10
26687;DHT22;14298;50.900;4.648;2023-03-12T08:03:55;8.30;97.10
26687;DHT22;14298;50.900;4.648;2023-03-12T08:06:24;8.30;97.10
26687;DHT22;14298;50.900;4.648;2023-03-12T08:08:53;8.30;97.10
26687;DHT22;14298;50.900;4.648;2023-03-12T08:11:21;8.40;97.10
26687;DHT22;14298;50.900;4.648;2023-03-12T08:13:50;8.40;97.10
26687;DHT22;14298;50.900;4.648;2023-03-12T08:16:18;8.40;97.10
26687;DHT22;14298;50.900;4.648;2023-03-12T08:18:46;8.40;97.10
26687;DHT22;14298;50.900;4.648;2023-03-12T08:21:14;8.50;97.10
26687;DHT22;14298;50.900;4.648;2023-03-12T08:23:43;8.50;97.10
26687;DHT22;14298;50.900;4.648;2023-03-12T08:26:11;8.50;97.10
26687;DHT22;14298;50.900;4.648;2023-03-12T08:28:40;8.60;97.10
26687;DHT22;14298;50.900;4.648;2023-03-12T08:31:08;8.70;97.10
26687;DHT22;14298;50.900;4.648;2023-03-12T08:33:36;8.70;97.10
26687;DHT22;14298;50.900;4.648;2023-03-12T08:36:07;8.70;97.10
26687;DHT22;14298;50.900;4.648;2023-03-12T08:38:36;8.80;97.10
26687;DHT22;14298;50.900;4.648;2023-03-12T08:41:04;8.90;97.10
26687;DHT22;14298;50.900;4.648;2023-03-12T08:43:32;9.00;97.10
26687;DHT22;14298;50.900;4.648;2023-03-12T08:46:02;9.10;97.10
26687;DHT22;14298;50.900;4.648;2023-03-12T08:48:31;9.10;97.10
26687;DHT22;14298;50.900;4.648;2023-03-12T08:51:01;9.30;97.10
26687;DHT22;14298;50.900;4.648;2023-03-12T08:53:32;9.40;97.10
26687;DHT22;14298;50.900;4.648;2023-03-12T08:56:02;9.40;97.10
26687;DHT22;14298;50.900;4.648;2023-03-12T08:58:30;9.50;97.10
26687;DHT22;14298;50.900;4.648;2023-03-12T09:00:59;9.60;97.10
26687;DHT22;14298;50.900;4.648;2023-03-12T09:03:27;9.80;97.10
26687;DHT22;14298;50.900;4.648;2023-03-12T09:06:10;9.80;97.10
26687;DHT22;14298;50.900;4.648;2023-03-12T09:08:41;9.90;97.10
26687;DHT22;14298;50.900;4.648;2023-03-12T09:11:11;10.10;97.10
26687;DHT22;14298;50.900;4.648;2023-03-12T09:13:40;10.20;97.10
26687;DHT22;14298;50.900;4.648;2023-03-12T09:16:08;10.30;97.10
26687;DHT22;14298;50.900;4.648;2023-03-12T09:18:37;10.70;97.10
26687;DHT22;14298;50.900;4.648;2023-03-12T09:21:05;11.50;97.10
26687;DHT22;14298;50.900;4.648;2023-03-12T09:23:33;11.90;97.10
26687;DHT22;14298;50.900;4.648;2023-03-12T09:26:02;12.00;97.10
26687;DHT22;14298;50.900;4.648;2023-03-12T09:28:30;12.00;97.10
26687;DHT22;14298;50.900;4.648;2023-03-12T09:31:01;12.20;97.10
26687;DHT22;14298;50.900;4.648;2023-03-12T09:33:30;12.40;97.10
26687;DHT22;14298;50.900;4.648;2023-03-12T09:36:00;12.40;97.10
26687;DHT22;14298;50.900;4.648;2023-03-12T09:38:29;12.40;97.10
26687;DHT22;14298;50.900;4.648;2023-03-12T09:40:58;12.40;97.10
26687;DHT22;14298;50.900;4.648;2023-03-12T09:50:04;13.40;97.10
26687;DHT22;14298;50.900;4.648;2023-03-12T09:51:50;14.60;97.10
26687;DHT22;14298;50.900;4.648;2023-03-12T09:54:46;15.50;97.10
26687;DHT22;14298;50.900;4.648;2023-03-12T09:56:59;16.00;97.10
26687;DHT22;14298;50.900;4.648;2023-03-12T09:59:29;15.80;97.10
26687;DHT22;14298;50.900;4.648;2023-03-12T10:01:59;15.40;97.10
26687;DHT22;14298;50.900;4.648;2023-03-12T10:04:53;14.90;97.10
26687;DHT22;14298;50.900;4.648;2023-03-12T10:07:26;14.60;97.10
26687;DHT22;14298;50.900;4.648;2023-03-12T10:16:09;13.80;97.10
26687;DHT22;14298;50.900;4.648;2023-03-12T10:24:02;13.80;97.10
26687;DHT22;14298;50.900;4.648;2023-03-12T10:26:53;13.80;97.10
26687;DHT22;14298;50.900;4.648;2023-03-12T10:32:06;13.50;97.10
26687;DHT22;14298;50.900;4.648;2023-03-12T10:34:55;13.30;97.10
26687;DHT22;14298;50.900;4.648;2023-03-12T10:37:50;13.10;97.10
26687;DHT22;14298;50.900;4.648;2023-03-12T10:40:17;13.00;97.10
26687;DHT22;14298;50.900;4.648;2023-03-12T10:42:46;13.00;97.10
26687;DHT22;14298;50.900;4.648;2023-03-12T10:45:26;13.00;97.10
26687;DHT22;14298;50.900;4.648;2023-03-12T10:47:59;13.00;97.10
26687;DHT22;14298;50.900;4.648;2023-03-12T10:50:30;13.20;97.10
26687;DHT22;14298;50.900;4.648;2023-03-12T10:53:21;13.40;97.10
26687;DHT22;14298;50.900;4.648;2023-03-12T10:58:42;13.90;97.10
26687;DHT22;14298;50.900;4.648;2023-03-12T11:01:19;14.00;97.10
26687;DHT22;14298;50.900;4.648;2023-03-12T11:03:48;14.00;97.10
26687;DHT22;14298;50.900;4.648;2023-03-12T11:06:28;14.00;97.10
26687;DHT22;14298;50.900;4.648;2023-03-12T11:09:17;14.10;97.10
26687;DHT22;14298;50.900;4.648;2023-03-12T11:11:48;14.10;97.10
26687;DHT22;14298;50.900;4.648;2023-03-12T11:14:20;14.10;97.10
26687;DHT22;14298;50.900;4.648;2023-03-12T11:16:50;14.10;97.10
26687;DHT22;14298;50.900;4.648;2023-03-12T11:19:32;14.00;97.10
26687;DHT22;14298;50.900;4.648;2023-03-12T11:22:04;13.80;97.10
26687;DHT22;14298;50.900;4.648;2023-03-12T11:24:34;13.80;97.10
26687;DHT22;14298;50.900;4.648;2023-03-12T11:27:41;13.80;97.10
26687;DHT22;14298;50.900;4.648;2023-03-12T11:30:14;13.90;97.10
26687;DHT22;14298;50.900;4.648;2023-03-12T11:32:51;14.20;97.10
26687;DHT22;14298;50.900;4.648;2023-03-12T11:35:19;14.10;97.10
26687;DHT22;14298;50.900;4.648;2023-03-12T11:38:02;14.00;97.10
26687;DHT22;14298;50.900;4.648;2023-03-12T11:43:44;13.60;97.10
26687;DHT22;14298;50.900;4.648;2023-03-12T11:55:07;13.50;97.10
26687;DHT22;14298;50.900;4.648;2023-03-12T12:00:43;13.40;97.10
26687;DHT22;14298;50.900;4.648;2023-03-12T12:06:04;13.30;97.10
26687;DHT22;14298;50.900;4.648;2023-03-12T12:23:14;13.80;97.10
26687;DHT22;14298;50.900;4.648;2023-03-12T12:36:32;13.40;97.10
26687;DHT22;14298;50.900;4.648;2023-03-12T12:39:14;13.20;97.10
26687;DHT22;14298;50.900;4.648;2023-03-12T12:41:52;13.10;97.10
26687;DHT22;14298;50.900;4.648;2023-03-12T12:44:23;13.10;97.10
26687;DHT22;14298;50.900;4.648;2023-03-12T12:46:58;13.20;97.10
26687;DHT22;14298;50.900;4.648;2023-03-12T12:52:02;13.60;97.10
26687;DHT22;14298;50.900;4.648;2023-03-12T12:54:55;13.80;97.10
26687;DHT22;14298;50.900;4.648;2023-03-12T13:03:14;14.10;97.10
26687;DHT22;14298;50.900;4.648;2023-03-12T13:05:46;14.10;97.10
26687;DHT22;14298;50.900;4.648;2023-03-12T13:13:50;13.90;97.10
26687;DHT22;14298;50.900;4.648;2023-03-12T13:16:34;13.90;97.10
26687;DHT22;14298;50.900;4.648;2023-03-12T13:27:29;13.60;97.10
26687;DHT22;14298;50.900;4.648;2023-03-12T13:29:58;13.60;97.10
26687;DHT22;14298;50.900;4.648;2023-03-12T13:32:37;13.60;97.10
26687;DHT22;14298;50.900;4.648;2023-03-12T13:43:15;13.40;97.10
26687;DHT22;14298;50.900;4.648;2023-03-12T13:46:06;13.20;97.10
26687;DHT22;14298;50.900;4.648;2023-03-12T13:48:38;13.10;97.10
26687;DHT22;14298;50.900;4.648;2023-03-12T13:51:10;13.00;97.10
26687;DHT22;14298;50.900;4.648;2023-03-12T13:53:39;13.00;97.10
26687;DHT22;14298;50.900;4.648;2023-03-12T13:56:10;13.00;97.10
26687;DHT22;14298;50.900;4.648;2023-03-12T13:58:47;12.90;97.10
26687;DHT22;14298;50.900;4.648;2023-03-12T14:01:19;13.00;97.10
26687;DHT22;14298;50.900;4.648;2023-03-12T14:03:47;13.10;97.10
26687;DHT22;14298;50.900;4.648;2023-03-12T14:17:20;13.50;97.10
26687;DHT22;14298;50.900;4.648;2023-03-12T14:22:34;13.30;97.10
26687;DHT22;14298;50.900;4.648;2023-03-12T14:25:16;13.20;97.10
26687;DHT22;14298;50.900;4.648;2023-03-12T14:27:44;13.20;97.10
26687;DHT22;14298;50.900;4.648;2023-03-12T14:30:20;13.10;97.10
26687;DHT22;14298;50.900;4.648;2023-03-12T14:32:51;13.10;97.10
26687;DHT22;14298;50.900;4.648;2023-03-12T14:35:35;13.20;97.10
26687;DHT22;14298;50.900;4.648;2023-03-12T14:38:10;13.20;97.10
26687;DHT22;14298;50.900;4.648;2023-03-12T14:41:09;13.20;97.10
26687;DHT22;14298;50.900;4.648;2023-03-12T14:43:41;13.20;97.10
26687;DHT22;14298;50.900;4.648;2023-03-12T14:46:16;13.20;97.10
26687;DHT22;14298;50.900;4.648;2023-03-12T14:48:50;13.10;97.10
26687;DHT22;14298;50.900;4.648;2023-03-12T14:51:24;13.10;97.10
26687;DHT22;14298;50.900;4.648;2023-03-12T14:53:54;13.20;97.10
26687;DHT22;14298;50.900;4.648;2023-03-12T14:56:28;13.30;97.10
26687;DHT22;14298;50.900;4.648;2023-03-12T15:01:46;13.40;97.10
26687;DHT22;14298;50.900;4.648;2023-03-12T15:04:20;13.50;97.10
26687;DHT22;14298;50.900;4.648;2023-03-12T15:06:57;13.40;97.10
26687;DHT22;14298;50.900;4.648;2023-03-12T15:09:30;13.40;97.10
26687;DHT22;14298;50.900;4.648;2023-03-12T15:12:16;13.30;97.10
26687;DHT22;14298;50.900;4.648;2023-03-12T15:14:41;13.40;97.10
26687;DHT22;14298;50.900;4.648;2023-03-12T15:17:18;13.40;97.10
26687;DHT22;14298;50.900;4.648;2023-03-12T15:19:48;13.40;97.10
26687;DHT22;14298;50.900;4.648;2023-03-12T15:22:18;13.40;97.10
26687;DHT22;14298;50.900;4.648;2023-03-12T15:24:50;13.40;97.10
26687;DHT22;14298;50.900;4.648;2023-03-12T15:29:58;13.20;97.10
26687;DHT22;14298;50.900;4.648;2023-03-12T15:32:27;13.10;97.10
26687;DHT22;14298;50.900;4.648;2023-03-12T15:34:58;13.10;97.10
26687;DHT22;14298;50.900;4.648;2023-03-12T15:37:31;12.90;97.10
26687;DHT22;14298;50.900;4.648;2023-03-12T15:40:05;12.90;97.10
26687;DHT22;14298;50.900;4.648;2023-03-12T15:42:42;12.90;97.10
26687;DHT22;14298;50.900;4.648;2023-03-12T15:45:26;12.90;97.10
26687;DHT22;14298;50.900;4.648;2023-03-12T15:47:55;12.80;97.10
26687;DHT22;14298;50.900;4.648;2023-03-12T15:50:32;12.80;97.10
26687;DHT22;14298;50.900;4.648;2023-03-12T15:53:06;12.80;97.10
26687;DHT22;14298;50.900;4.648;2023-03-12T15:55:35;12.80;97.10
26687;DHT22;14298;50.900;4.648;2023-03-12T16:00:52;12.90;97.10
26687;DHT22;14298;50.900;4.648;2023-03-12T16:03:21;12.90;97.10
26687;DHT22;14298;50.900;4.648;2023-03-12T16:05:50;12.80;97.10
26687;DHT22;14298;50.900;4.648;2023-03-12T16:08:24;12.80;97.10
26687;DHT22;14298;50.900;4.648;2023-03-12T16:10:55;12.80;97.10
26687;DHT22;14298;50.900;4.648;2023-03-12T16:13:26;12.70;97.10
26687;DHT22;14298;50.900;4.648;2023-03-12T16:15:57;12.70;97.10
26687;DHT22;14298;50.900;4.648;2023-03-12T16:18:25;12.70;97.10
26687;DHT22;14298;50.900;4.648;2023-03-12T16:20:54;12.70;97.10
26687;DHT22;14298;50.900;4.648;2023-03-12T16:23:22;12.70;97.10
26687;DHT22;14298;50.900;4.648;2023-03-12T16:25:52;12.70;97.10
26687;DHT22;14298;50.900;4.648;2023-03-12T16:28:23;12.70;97.10
26687;DHT22;14298;50.900;4.648;2023-03-12T16:30:52;12.70;97.10
26687;DHT22;14298;50.900;4.648;2023-03-12T16:33:22;12.60;97.10
26687;DHT22;14298;50.900;4.648;2023-03-12T16:35:51;12.50;97.10
26687;DHT22;14298;50.900;4.648;2023-03-12T16:38:20;12.50;97.10
26687;DHT22;14298;50.900;4.648;2023-03-12T16:40:50;12.50;97.10
26687;DHT22;14298;50.900;4.648;2023-03-12T16:43:21;12.50;97.10
26687;DHT22;14298;50.900;4.648;2023-03-12T16:45:51;12.50;97.10
26687;DHT22;14298;50.900;4.648;2023-03-12T16:48:22;12.50;97.10
26687;DHT22;14298;50.900;4.648;2023-03-12T16:50:54;12.50;97.10
26687;DHT22;14298;50.900;4.648;2023-03-12T16:53:23;12.40;97.10
26687;DHT22;14298;50.900;4.648;2023-03-12T16:55:59;12.40;97.10
26687;DHT22;14298;50.900;4.648;2023-03-12T16:58:32;12.40;97.10
26687;DHT22;14298;50.900;4.648;2023-03-12T17:01:00;12.30;97.10
26687;DHT22;14298;50.900;4.648;2023-03-12T17:03:34;12.30;97.10
26687;DHT22;14298;50.900;4.648;2023-03-12T17:06:05;12.30;97.10
26687;DHT22;14298;50.900;4.648;2023-03-12T17:08:33;12.20;97.10
26687;DHT22;14298;50.900;4.648;2023-03-12T17:11:05;12.10;97.10
26687;DHT22;14298;50.900;4.648;2023-03-12T17:13:34;12.10;97.10
26687;DHT22;14298;50.900;4.648;2023-03-12T17:16:03;12.10;97.10
26687;DHT22;14298;50.900;4.648;2023-03-12T17:18:51;12.00;97.10
26687;DHT22;14298;50.900;4.648;2023-03-12T17:21:20;12.00;97.10
26687;DHT22;14298;50.900;4.648;2023-03-12T17:23:50;11.90;97.10
26687;DHT22;14298;50.900;4.648;2023-03-12T17:26:18;11.80;97.10
26687;DHT22;14298;50.900;4.648;2023-03-12T17:28:46;11.70;97.10
26687;DHT22;14298;50.900;4.648;2023-03-12T17:31:15;11.60;97.10
26687;DHT22;14298;50.900;4.648;2023-03-12T17:33:44;11.60;97.10
26687;DHT22;14298;50.900;4.648;2023-03-12T17:36:13;11.50;97.10
26687;DHT22;14298;50.900;4.648;2023-03-12T17:38:41;11.50;97.10
26687;DHT22;14298;50.900;4.648;2023-03-12T17:41:09;11.40;97.10
26687;DHT22;14298;50.900;4.648;2023-03-12T17:43:39;11.30;97.10
26687;DHT22;14298;50.900;4.648;2023-03-12T17:46:08;11.30;97.10
26687;DHT22;14298;50.900;4.648;2023-03-12T17:48:37;11.30;97.10
26687;DHT22;14298;50.900;4.648;2023-03-12T17:51:07;11.30;97.10
26687;DHT22;14298;50.900;4.648;2023-03-12T17:53:39;11.30;97.10
26687;DHT22;14298;50.900;4.648;2023-03-12T17:56:08;11.20;97.10
26687;DHT22;14298;50.900;4.648;2023-03-12T17:58:38;11.20;97.10
26687;DHT22;14298;50.900;4.648;2023-03-12T18:01:07;11.30;97.10
26687;DHT22;14298;50.900;4.648;2023-03-12T18:03:35;11.20;97.10
26687;DHT22;14298;50.900;4.648;2023-03-12T18:06:04;11.20;97.10